Appleyard, Washington
Current Conditions -  °F | °C
As of 7:23 PM on Saturday 20 Dec 2014 (Local Time) from KEAT Reporting Station
Light Rain Light Rain  
Wind Chill: 35°   Ceiling: 1700
Heat Index: 35°   Visibility: 2.5mi
Dew Point: 32°   Wind: 3mph
Humidity: 89%   Direction: 300°WNW
Pressure: 29.54"   Gusts: NA
Location:  47.3635°N, 120.348°W
Report Text: KEAT 210323Z AUTO 30003KT 2 1/2SM -RA BR SCT010 OVC017 02/00 A2954 RMK AO2 P0001 T00170000
Loading
Personal Weather Stations






























Interactive Weather Map New forecast layout! Learn more

10-Day Weather Forecast

Advertisements
Track Severe Weather on mobile